Time;durP1;ratioP1;P1;durP2;ratioP2;P2;SDS_P1;SDS_P2;PMS_P1;PMS_P2;Temp;Humidity;BMP_temperature;BMP_pressure;BME280_temperature;BME280_humidity;BME280_pressure;Samples;Min_cycle;Max_cycle;Signal;HPM_P1;HPM_P2
2023/06/08 00:02:10;;;;;;;14.38;6.25;;;;;;;17.35;78.01;101854.00;5004093;28;20115;-72
2023/06/08 00:04:40;;;;;;;13.77;5.53;;;;;;;17.30;78.74;101853.66;4989674;28;20054;-71
2023/06/08 00:07:08;;;;;;;10.52;5.13;;;;;;;17.34;76.34;101848.88;5000831;28;20160;-71
2023/06/08 00:09:38;;;;;;;12.45;5.30;;;;;;;17.27;78.35;101846.06;4992213;28;20094;-72
2023/06/08 00:12:06;;;;;;;15.98;5.28;;;;;;;17.28;77.66;101841.56;5004588;28;20107;-72
2023/06/08 00:14:35;;;;;;;14.77;5.57;;;;;;;17.28;78.52;101845.06;4999576;28;20053;-71
2023/06/08 00:17:03;;;;;;;17.92;6.75;;;;;;;17.17;79.78;101854.16;4999824;28;20116;-71
2023/06/08 00:19:31;;;;;;;12.15;5.93;;;;;;;17.15;78.73;101852.66;5000602;28;20046;-72
2023/06/08 00:21:59;;;;;;;17.77;7.28;;;;;;;17.12;79.73;101853.00;5001689;28;20429;-71
2023/06/08 00:24:25;;;;;;;14.75;5.93;;;;;;;17.17;78.34;101840.06;5006700;28;20065;-72
2023/06/08 00:26:52;;;;;;;12.85;5.93;;;;;;;17.04;80.29;101845.88;4999264;28;20909;-71
2023/06/08 00:29:20;;;;;;;17.08;6.50;;;;;;;16.98;80.09;101847.34;5005838;28;20077;-72
2023/06/08 00:31:46;;;;;;;13.90;6.05;;;;;;;16.98;81.06;101855.31;4994997;28;20047;-72
2023/06/08 00:34:13;;;;;;;16.02;6.35;;;;;;;16.88;81.75;101851.16;5000251;28;20049;-72
2023/06/08 00:36:40;;;;;;;14.85;6.78;;;;;;;16.80;82.59;101849.28;5005779;28;20054;-71
2023/06/08 00:39:06;;;;;;;14.65;5.65;;;;;;;16.78;81.66;101857.41;4999572;28;20046;-72
2023/06/08 00:41:33;;;;;;;11.30;5.82;;;;;;;16.73;82.21;101848.28;5006159;28;20050;-72
2023/06/08 00:43:59;;;;;;;16.00;6.10;;;;;;;16.69;82.35;101846.94;4999790;28;20058;-71
2023/06/08 00:46:30;;;;;;;13.50;5.65;;;;;;;16.66;83.67;101840.16;5001667;28;20054;-72
2023/06/08 00:48:57;;;;;;;15.25;6.13;;;;;;;16.63;83.29;101844.94;4997009;28;20049;-71
2023/06/08 00:51:33;;;;;;;16.63;5.90;;;;;;;16.56;83.00;101832.34;5006454;28;20088;-72
2023/06/08 00:54:00;;;;;;;15.20;6.25;;;;;;;16.55;83.98;101829.84;4992677;28;20089;-71
2023/06/08 00:56:31;;;;;;;14.45;6.03;;;;;;;16.51;84.55;101828.50;4998044;28;20426;-70
2023/06/08 00:59:00;;;;;;;15.30;6.18;;;;;;;16.54;84.01;101833.47;4990337;28;20803;-71
2023/06/08 01:01:29;;;;;;;15.25;6.38;;;;;;;16.47;84.69;101828.00;4994175;28;20049;-70
2023/06/08 01:04:05;;;;;;;;;;;;;;;16.45;85.17;101829.16;5000627;28;20115;-68
2023/06/08 01:06:35;;;;;;;16.05;7.35;;;;;;;16.37;86.08;101830.78;5000088;28;20287;-68
2023/06/08 01:09:42;;;;;;;17.25;6.72;;;;;;;16.35;85.70;101832.75;5004401;28;20044;-68
2023/06/08 01:12:21;;;;;;;12.57;6.47;;;;;;;16.28;86.72;101826.44;4993391;28;20050;-68
2023/06/08 01:15:28;;;;;;;13.23;5.60;;;;;;;16.26;87.02;101830.25;4998611;28;20046;-68
2023/06/08 01:17:58;;;;;;;17.38;5.93;;;;;;;16.20;86.77;101831.69;4987952;28;20592;-67
2023/06/08 01:20:46;;;;;;;14.43;6.35;;;;;;;16.11;88.78;101830.00;5012808;28;20045;-68
2023/06/08 01:23:46;;;;;;;18.38;6.63;;;;;;;16.05;88.79;101834.09;4999515;28;20573;-69
2023/06/08 01:26:15;;;;;;;14.60;6.40;;;;;;;15.98;89.26;101831.25;5001319;28;20422;-68
2023/06/08 01:28:47;;;;;;;21.00;6.53;;;;;;;16.01;89.54;101825.66;4994878;28;20058;-68
2023/06/08 01:31:13;;;;;;;11.77;5.25;;;;;;;15.95;88.83;101828.09;5005315;28;20050;-68
2023/06/08 01:33:40;;;;;;;17.20;6.18;;;;;;;15.94;89.04;101821.97;4989572;28;20548;-68
2023/06/08 01:36:17;;;;;;;11.63;5.40;;;;;;;15.94;86.63;101826.44;4989584;28;20053;-69
2023/06/08 01:39:22;;;;;;;13.68;6.32;;;;;;;15.93;87.93;101830.91;4997192;28;20073;-69
2023/06/08 01:41:54;;;;;;;13.98;5.80;;;;;;;15.93;88.13;101830.91;4981935;28;20073;-69
2023/06/08 01:44:21;;;;;;;13.55;6.53;;;;;;;15.90;90.16;101830.41;4997084;28;20131;-68
2023/06/08 01:47:00;;;;;;;15.20;6.75;;;;;;;15.88;88.81;101835.03;4997859;28;20054;-68
2023/06/08 01:49:28;;;;;;;13.63;5.93;;;;;;;15.88;89.41;101827.09;4993516;28;20051;-68
2023/06/08 01:51:55;;;;;;;14.65;6.65;;;;;;;15.87;89.48;101814.84;5003362;28;20053;-67
2023/06/08 01:54:22;;;;;;;13.25;5.95;;;;;;;15.85;89.14;101828.22;5000436;28;20129;-68
2023/06/08 01:56:49;;;;;;;15.05;5.93;;;;;;;15.80;89.74;101827.88;5004201;28;20108;-68
2023/06/08 01:59:15;;;;;;;12.82;7.28;;;;;;;15.78;91.78;101822.72;5001426;28;20671;-67
2023/06/08 02:01:42;;;;;;;12.45;7.15;;;;;;;15.77;91.24;101820.22;5004949;28;20085;-68
2023/06/08 02:04:08;;;;;;;14.38;7.22;;;;;;;15.77;90.87;101823.69;4999980;28;20053;-68
2023/06/08 02:06:35;;;;;;;13.38;6.50;;;;;;;15.79;90.63;101823.53;5009362;28;20532;-68
2023/06/08 02:09:01;;;;;;;16.00;7.45;;;;;;;15.77;91.67;101812.28;4997025;28;20046;-68
2023/06/08 02:11:28;;;;;;;13.48;6.57;;;;;;;15.81;91.35;101816.28;4999621;28;20049;-68
2023/06/08 02:13:54;;;;;;;13.13;6.82;;;;;;;15.79;90.86;101810.31;5007945;28;20050;-67
2023/06/08 02:16:22;;;;;;;16.23;6.40;;;;;;;15.75;91.48;101812.44;5001750;28;20049;-66
2023/06/08 02:18:50;;;;;;;16.02;6.70;;;;;;;15.76;89.94;101808.81;5000173;28;20053;-68
2023/06/08 02:21:16;;;;;;;10.73;5.88;;;;;;;15.75;89.08;101815.09;5001027;28;20060;-67
2023/06/08 02:23:43;;;;;;;13.88;7.40;;;;;;;15.71;90.62;101813.72;4987469;28;20560;-69
2023/06/08 02:26:09;;;;;;;13.18;6.32;;;;;;;15.65;90.87;101802.94;4995611;28;20042;-70
2023/06/08 02:28:36;;;;;;;15.25;6.85;;;;;;;15.60;91.33;101806.88;4999014;28;20133;-67
2023/06/08 02:31:05;;;;;;;14.27;7.60;;;;;;;15.56;91.98;101800.25;5000435;28;20133;-68
2023/06/08 02:33:32;;;;;;;16.33;7.55;;;;;;;15.53;91.82;101797.06;4997853;28;20424;-68
2023/06/08 02:35:58;;;;;;;12.93;6.15;;;;;;;15.56;91.28;101808.19;4996852;28;20801;-68
2023/06/08 02:38:26;;;;;;;17.20;7.25;;;;;;;15.50;93.28;101798.19;4985121;28;20490;-67
2023/06/08 02:40:53;;;;;;;15.18;7.00;;;;;;;15.51;92.08;101796.41;5008339;28;20486;-69
2023/06/08 02:43:19;;;;;;;15.13;7.22;;;;;;;15.48;92.92;101794.88;5008264;28;20081;-68
2023/06/08 02:45:46;;;;;;;16.13;7.30;;;;;;;15.50;91.93;101797.38;5001848;28;20050;-68
2023/06/08 02:48:12;;;;;;;11.80;6.53;;;;;;;15.48;91.99;101786.94;5008943;28;20067;-69
2023/06/08 02:50:39;;;;;;;12.73;6.70;;;;;;;15.50;91.44;101798.19;4999444;28;20064;-71
2023/06/08 02:53:06;;;;;;;14.77;7.70;;;;;;;15.45;92.82;101795.19;5002455;28;20076;-72
2023/06/08 02:55:34;;;;;;;17.00;7.32;;;;;;;15.41;92.83;101799.97;5002437;28;20054;-71
2023/06/08 02:58:03;;;;;;;12.20;6.57;;;;;;;15.39;92.83;101799.28;5007331;28;20399;-71
2023/06/08 03:00:32;;;;;;;14.85;7.15;;;;;;;15.41;92.94;101801.78;5006326;28;20045;-72
2023/06/08 03:03:00;;;;;;;18.50;7.07;;;;;;;15.41;92.03;101799.16;4997917;28;20080;-71
2023/06/08 03:05:29;;;;;;;17.02;7.07;;;;;;;15.38;92.02;101794.16;5001509;28;20054;-72
2023/06/08 03:07:58;;;;;;;17.02;7.03;;;;;;;15.39;91.55;101798.47;4999145;28;20564;-72
2023/06/08 03:10:26;;;;;;;16.08;7.13;;;;;;;15.34;92.25;101803.38;5008366;28;20077;-71
2023/06/08 03:12:52;;;;;;;15.10;6.75;;;;;;;15.36;91.12;101801.41;5001935;28;20054;-72
2023/06/08 03:15:22;;;;;;;13.65;7.25;;;;;;;15.33;91.22;101791.97;5006212;28;20608;-71
2023/06/08 03:17:51;;;;;;;15.73;6.93;;;;;;;15.31;91.52;101787.81;4992022;28;20049;-72
2023/06/08 03:20:18;;;;;;;;;;;;;;;15.35;90.65;101791.84;5003111;28;20045;-71
2023/06/08 03:22:46;;;;;;;13.45;7.47;;;;;;;15.32;89.83;101789.47;5001324;28;19995;-71
2023/06/08 03:25:15;;;;;;;14.85;7.45;;;;;;;15.17;92.03;101795.34;4998722;28;20502;-71
2023/06/08 03:27:44;;;;;;;14.68;7.20;;;;;;;15.17;92.22;101797.13;4995673;28;20058;-71
2023/06/08 03:30:11;;;;;;;15.82;7.35;;;;;;;15.12;91.68;101796.78;4997685;28;20050;-71
2023/06/08 03:32:41;;;;;;;13.15;7.38;;;;;;;15.04;92.68;101797.53;5003104;28;20042;-72
2023/06/08 03:35:08;;;;;;;15.38;7.38;;;;;;;15.03;92.84;101793.22;5001468;28;20053;-71
2023/06/08 03:37:35;;;;;;;16.83;8.05;;;;;;;15.03;92.08;101790.56;4990586;28;20065;-72
2023/06/08 03:40:01;;;;;;;15.27;7.60;;;;;;;15.04;91.78;101797.53;5006684;28;20057;-71
2023/06/08 03:42:28;;;;;;;14.00;7.28;;;;;;;14.98;92.39;101791.03;4999831;28;20081;-71
2023/06/08 03:44:54;;;;;;;15.60;7.40;;;;;;;14.92;92.26;101789.00;5007613;28;20054;-71
2023/06/08 03:47:21;;;;;;;12.13;7.35;;;;;;;14.90;92.98;101784.84;4996902;28;20077;-70
2023/06/08 03:49:47;;;;;;;14.20;8.20;;;;;;;14.88;92.84;101787.66;4999456;28;20066;-71
2023/06/08 03:52:14;;;;;;;14.95;7.60;;;;;;;14.88;93.21;101792.94;5001324;28;20058;-71
2023/06/08 03:54:41;;;;;;;15.43;8.43;;;;;;;14.87;93.01;101778.03;4998015;28;20073;-71
2023/06/08 03:57:07;;;;;;;14.65;7.15;;;;;;;14.91;91.59;101784.69;5005254;28;20057;-71
2023/06/08 03:59:34;;;;;;;14.60;7.85;;;;;;;14.93;92.60;101782.72;4997719;28;20816;-71
2023/06/08 04:02:00;;;;;;;14.65;8.30;;;;;;;14.95;92.30;101780.75;4996895;28;20050;-72
2023/06/08 04:04:29;;;;;;;12.75;7.80;;;;;;;14.93;93.16;101780.06;5004284;28;20118;-71
2023/06/08 04:07:00;;;;;;;14.30;8.13;;;;;;;14.89;92.62;101777.91;4995655;28;20593;-71
2023/06/08 04:09:28;;;;;;;17.10;9.25;;;;;;;14.83;94.66;101790.72;5002369;28;20050;-72
2023/06/08 04:11:56;;;;;;;15.77;8.07;;;;;;;14.87;94.26;101785.97;4994479;28;20498;-71
2023/06/08 04:14:23;;;;;;;16.75;7.82;;;;;;;14.86;93.55;101786.97;5000836;28;20088;-72
2023/06/08 04:16:50;;;;;;;16.35;8.50;;;;;;;14.81;94.26;101779.47;4992555;28;20062;-71
2023/06/08 04:19:16;;;;;;;21.55;9.00;;;;;;;14.82;94.64;101783.78;5004221;28;20156;-71
2023/06/08 04:21:43;;;;;;;20.20;10.13;;;;;;;14.80;95.06;101777.00;5008129;28;20096;-72
2023/06/08 04:24:16;;;;;;;16.98;9.25;;;;;;;14.78;96.40;101778.97;5003020;28;20061;-71
2023/06/08 04:26:43;;;;;;;17.55;8.90;;;;;;;14.80;95.96;101783.13;4998472;28;20495;-71
2023/06/08 04:29:12;;;;;;;14.80;8.65;;;;;;;14.87;94.77;101780.69;4995169;28;20189;-71
2023/06/08 04:31:38;;;;;;;13.50;7.95;;;;;;;14.94;93.99;101776.47;4988064;28;20050;-70
2023/06/08 04:34:05;;;;;;;15.35;8.52;;;;;;;15.00;94.09;101773.22;4985809;28;20108;-71
2023/06/08 04:36:31;;;;;;;21.30;9.27;;;;;;;14.99;93.31;101774.22;4999114;28;20065;-71
2023/06/08 04:38:58;;;;;;;17.77;8.40;;;;;;;15.06;92.37;101779.72;5006354;28;20064;-73
2023/06/08 04:41:29;;;;;;;18.38;8.88;;;;;;;15.05;93.69;101770.09;5000658;28;20734;-71
2023/06/08 04:44:01;;;;;;;17.27;9.45;;;;;;;15.03;93.78;101778.22;4995772;28;20066;-71
2023/06/08 04:46:30;;;;;;;17.17;9.27;;;;;;;15.08;93.26;101780.38;4992641;28;20088;-71
2023/06/08 04:48:57;;;;;;;15.77;8.40;;;;;;;15.08;92.64;101774.28;5005901;28;20513;-71
2023/06/08 04:51:24;;;;;;;14.70;8.98;;;;;;;15.01;93.99;101779.31;4994284;28;20428;-71
2023/06/08 04:53:51;;;;;;;18.83;9.07;;;;;;;14.99;94.21;101773.38;5005758;28;20108;-71
2023/06/08 04:56:20;;;;;;;17.65;9.65;;;;;;;14.98;93.55;101783.09;5000927;28;20241;-70
2023/06/08 04:58:47;;;;;;;17.50;9.35;;;;;;;14.97;94.28;101780.59;4994603;28;20050;-71
2023/06/08 05:01:13;;;;;;;19.13;9.68;;;;;;;15.00;93.12;101780.31;5001779;28;20050;-72
2023/06/08 05:03:40;;;;;;;16.05;9.25;;;;;;;15.00;92.68;101775.84;4999693;28;20176;-70
2023/06/08 05:06:06;;;;;;;16.10;9.65;;;;;;;15.01;94.26;101777.53;5004141;28;20045;-71
2023/06/08 05:08:33;;;;;;;15.57;9.25;;;;;;;15.07;94.07;101769.97;4999208;28;20058;-71
2023/06/08 05:10:59;;;;;;;16.05;8.77;;;;;;;15.08;92.59;101780.38;4994635;28;20463;-71
2023/06/08 05:13:26;;;;;;;16.58;8.32;;;;;;;15.14;91.10;101771.84;5001412;28;20056;-71
2023/06/08 05:15:54;;;;;;;14.90;9.38;;;;;;;15.17;92.06;101771.53;4998512;28;20054;-71
2023/06/08 05:18:20;;;;;;;17.88;9.55;;;;;;;15.18;93.01;101775.84;4999364;28;20059;-71
2023/06/08 05:20:47;;;;;;;17.60;9.50;;;;;;;15.22;92.29;101776.38;5008037;28;20386;-72
2023/06/08 05:23:13;;;;;;;15.20;9.40;;;;;;;15.25;91.96;101772.56;5004506;28;20161;-72
2023/06/08 05:25:40;;;;;;;19.90;9.32;;;;;;;15.25;91.22;101776.06;4994153;28;20053;-71
2023/06/08 05:28:07;;;;;;;18.40;9.90;;;;;;;15.25;91.93;101776.06;5002424;28;20065;-71
2023/06/08 05:30:33;;;;;;;15.73;9.07;;;;;;;15.29;91.79;101772.13;5005826;28;20118;-71
2023/06/08 05:33:00;;;;;;;15.85;9.25;;;;;;;15.33;90.79;101777.94;5000175;28;20049;-71
2023/06/08 05:35:27;;;;;;;18.48;9.85;;;;;;;15.29;91.76;101771.28;5002780;28;20141;-71
2023/06/08 05:37:54;;;;;;;19.10;9.40;;;;;;;15.32;91.32;101766.50;4989335;28;20064;-71
2023/06/08 05:40:21;;;;;;;16.65;9.55;;;;;;;15.33;90.51;101768.19;4998877;28;20046;-71
2023/06/08 05:42:47;;;;;;;16.38;8.93;;;;;;;15.36;91.18;101770.50;4998040;28;20499;-71
2023/06/08 05:45:13;;;;;;;15.75;9.63;;;;;;;15.39;90.42;101764.94;5004073;28;20054;-71
2023/06/08 05:47:40;;;;;;;17.27;8.68;;;;;;;15.46;90.05;101759.84;4997491;28;20507;-71
2023/06/08 05:50:07;;;;;;;17.25;8.38;;;;;;;15.52;89.78;101761.03;5005524;28;20445;-71
2023/06/08 05:52:34;;;;;;;15.73;9.60;;;;;;;15.56;89.42;101763.22;4996257;28;20108;-71
2023/06/08 05:55:01;;;;;;;13.30;8.00;;;;;;;15.58;89.66;101765.69;4991671;28;20127;-71
2023/06/08 05:57:27;;;;;;;16.88;9.23;;;;;;;15.60;88.02;101767.22;4998583;28;20081;-70
2023/06/08 05:59:54;;;;;;;14.07;9.45;;;;;;;15.68;87.97;101760.28;4997230;28;20498;-71
2023/06/08 06:02:20;;;;;;;17.35;8.63;;;;;;;15.72;88.78;101762.47;4991021;28;20093;-71
2023/06/08 06:04:47;;;;;;;15.98;8.85;;;;;;;15.73;87.93;101763.34;4994665;28;20590;-71
2023/06/08 06:07:14;;;;;;;14.77;8.30;;;;;;;15.77;86.43;101767.31;4993699;28;20360;-70
2023/06/08 06:09:40;;;;;;;15.50;10.35;;;;;;;15.74;88.53;101760.53;4999308;28;20132;-71
2023/06/08 06:12:09;;;;;;;18.65;9.82;;;;;;;15.73;89.66;101765.97;4987076;28;20046;-71
2023/06/08 06:14:38;;;;;;;19.08;8.90;;;;;;;15.78;89.22;101761.06;4991561;28;20057;-71
2023/06/08 06:17:05;;;;;;;;;;;;;;;15.90;87.59;101764.25;4995248;28;20054;-71
2023/06/08 06:19:37;;;;;;;12.55;7.22;;;;;;;15.96;86.71;101763.63;5004963;28;20395;-71
2023/06/08 06:22:09;;;;;;;17.95;8.57;;;;;;;16.06;86.54;101759.03;5003260;28;20046;-69
2023/06/08 06:24:37;;;;;;;14.93;8.55;;;;;;;16.12;86.97;101752.25;4999853;28;20065;-70
2023/06/08 06:27:05;;;;;;;13.90;8.10;;;;;;;16.13;87.10;101756.56;5021941;28;20053;-70
2023/06/08 06:29:32;;;;;;;13.73;8.13;;;;;;;16.22;86.93;101760.91;5016203;28;20076;-71
2023/06/08 06:31:59;;;;;;;14.43;7.63;;;;;;;16.23;87.21;101759.91;5033343;28;20049;-70
2023/06/08 06:34:25;;;;;;;11.77;7.63;;;;;;;16.32;86.90;101771.34;5011424;28;20056;-71
2023/06/08 06:36:52;;;;;;;17.60;8.23;;;;;;;16.38;87.01;101766.22;5019945;28;20053;-71
2023/06/08 06:39:19;;;;;;;14.27;7.30;;;;;;;16.47;85.42;101760.97;5022962;28;20049;-70
2023/06/08 06:41:46;;;;;;;19.35;9.32;;;;;;;16.51;84.91;101771.06;5009110;28;20046;-71
2023/06/08 06:44:12;;;;;;;13.90;7.45;;;;;;;16.58;83.68;101768.59;5023504;28;20091;-71
2023/06/08 06:46:40;;;;;;;17.05;9.05;;;;;;;16.61;82.43;101765.63;5016026;28;20054;-71
2023/06/08 06:49:06;;;;;;;13.95;7.03;;;;;;;16.67;82.22;101770.28;5019465;28;20080;-70
2023/06/08 06:51:33;;;;;;;16.92;8.63;;;;;;;16.68;82.93;101777.25;5013719;28;20756;-70
2023/06/08 06:54:00;;;;;;;13.63;8.15;;;;;;;16.75;83.62;101774.75;5023726;28;20064;-71
2023/06/08 06:56:26;;;;;;;13.60;8.57;;;;;;;16.69;81.43;101786.00;5013543;28;20046;-71
2023/06/08 06:58:52;;;;;;;13.95;7.47;;;;;;;16.69;81.62;101772.75;5016435;28;20057;-71
2023/06/08 07:01:20;;;;;;;14.55;7.97;;;;;;;16.78;81.64;101769.13;5021609;28;20104;-71
2023/06/08 07:03:47;;;;;;;16.70;8.10;;;;;;;16.84;82.03;101771.16;5008073;28;20041;-71
2023/06/08 07:06:14;;;;;;;16.38;7.35;;;;;;;16.99;81.59;101769.50;5016633;28;20100;-71
2023/06/08 07:08:41;;;;;;;13.88;7.82;;;;;;;17.10;81.66;101775.47;5016256;28;20050;-70
2023/06/08 07:11:08;;;;;;;13.55;6.65;;;;;;;17.19;80.83;101775.31;5021078;28;20069;-71
2023/06/08 07:13:35;;;;;;;14.02;6.65;;;;;;;17.29;78.78;101779.56;5022648;28;20489;-71
2023/06/08 07:16:03;;;;;;;14.93;7.68;;;;;;;17.36;78.19;101784.06;5011155;28;20053;-71
2023/06/08 07:18:30;;;;;;;13.80;7.43;;;;;;;17.43;76.91;101792.19;5015154;28;20069;-69
2023/06/08 07:20:57;;;;;;;12.90;8.15;;;;;;;17.49;77.48;101777.41;5018410;28;20128;-70
2023/06/08 07:23:24;;;;;;;10.55;6.85;;;;;;;17.62;77.07;101776.88;5022327;28;20073;-71
2023/06/08 07:26:11;;;;;;;15.60;7.57;;;;;;;17.72;76.49;101780.16;5009544;28;20989;-71
2023/06/08 07:29:00;;;;;;;13.02;7.88;;;;;;;17.79;76.52;101781.16;5019814;28;20153;-71
2023/06/08 07:31:27;;;;;;;10.77;6.95;;;;;;;17.93;75.89;101774.31;5014794;28;20173;-70
2023/06/08 07:33:56;;;;;;;12.70;6.95;;;;;;;18.04;74.19;101779.28;5016540;28;20121;-70
2023/06/08 07:36:23;;;;;;;;;;;;;;;18.08;73.44;101782.41;5023988;28;20114;-70
2023/06/08 07:38:52;;;;;;;14.02;7.70;;;;;;;18.11;73.78;101779.41;5014581;28;19936;-69
2023/06/08 07:41:19;;;;;;;13.68;7.55;;;;;;;18.14;73.49;101779.88;5020046;28;20518;-70
2023/06/08 07:43:46;;;;;;;13.43;7.38;;;;;;;18.21;72.65;101779.19;5007769;28;20102;-69
2023/06/08 07:46:13;;;;;;;15.13;9.10;;;;;;;18.26;71.71;101785.63;5015037;28;20350;-69
2023/06/08 07:48:39;;;;;;;14.18;7.40;;;;;;;18.29;71.41;101780.00;5006711;28;20070;-70
2023/06/08 07:51:06;;;;;;;16.88;7.78;;;;;;;18.32;71.87;101776.97;5026667;28;20042;-69
2023/06/08 07:53:36;;;;;;;20.45;8.68;;;;;;;18.40;71.93;101778.75;5025716;28;20038;-69
2023/06/08 07:56:03;;;;;;;18.00;7.93;;;;;;;18.43;73.02;101770.44;5021188;28;20053;-70
2023/06/08 07:58:31;;;;;;;15.38;7.93;;;;;;;18.44;72.74;101779.22;5011849;28;20085;-69
2023/06/08 08:00:58;;;;;;;13.43;7.85;;;;;;;18.49;73.23;101772.41;4999242;28;20178;-69
2023/06/08 08:03:25;;;;;;;13.27;7.13;;;;;;;18.62;73.06;101779.81;5017129;28;20050;-69
2023/06/08 08:05:52;;;;;;;14.23;8.60;;;;;;;18.69;73.83;101779.91;5021259;28;20065;-69
2023/06/08 08:08:19;;;;;;;15.15;8.45;;;;;;;18.76;72.78;101775.56;5020198;28;20070;-69
2023/06/08 08:10:46;;;;;;;14.17;8.17;;;;;;;18.82;72.36;101782.84;5013221;28;20050;-69
2023/06/08 08:13:13;;;;;;;18.57;8.33;;;;;;;18.86;72.35;101784.16;5009025;28;20046;-69
2023/06/08 08:15:40;;;;;;;20.52;8.30;;;;;;;18.93;71.64;101779.78;5023227;28;20049;-69
2023/06/08 08:18:06;;;;;;;13.35;7.60;;;;;;;18.94;70.07;101778.75;5010403;28;20042;-69
2023/06/08 08:20:33;;;;;;;20.83;7.72;;;;;;;19.04;69.25;101778.50;5034249;28;20025;-70
2023/06/08 08:23:00;;;;;;;17.75;8.48;;;;;;;19.11;69.41;101783.94;5012919;28;20046;-69
2023/06/08 08:25:26;;;;;;;18.52;7.50;;;;;;;19.24;69.30;101783.34;5025738;28;20076;-70
2023/06/08 08:27:53;;;;;;;14.93;6.47;;;;;;;19.30;68.32;101774.63;5025292;28;20060;-69
2023/06/08 08:30:19;;;;;;;18.52;7.95;;;;;;;19.39;67.85;101776.22;5023123;28;20141;-70
2023/06/08 08:32:46;;;;;;;10.13;6.75;;;;;;;19.40;67.85;101774.38;5027536;28;20044;-69
2023/06/08 08:35:14;;;;;;;21.85;7.03;;;;;;;19.45;66.87;101780.81;5022520;28;20094;-70
2023/06/08 08:37:42;;;;;;;12.27;6.68;;;;;;;19.44;66.52;101768.50;5028768;28;20040;-70
2023/06/08 08:40:09;;;;;;;11.70;6.18;;;;;;;19.47;66.68;101777.97;5019852;28;20068;-70
2023/06/08 08:42:44;;;;;;;13.10;7.13;;;;;;;19.47;66.98;101781.44;5015096;28;20057;-70
2023/06/08 08:45:13;;;;;;;11.65;6.30;;;;;;;19.52;66.13;101778.22;5027696;28;20098;-70
2023/06/08 08:47:41;;;;;;;13.27;6.57;;;;;;;19.58;65.75;101779.34;5016922;28;20092;-70
2023/06/08 08:50:16;;;;;;;11.43;6.30;;;;;;;19.61;65.48;101781.66;5010894;28;20066;-70
2023/06/08 08:52:45;;;;;;;10.07;5.85;;;;;;;19.65;65.67;101783.75;4997683;28;20110;-70
2023/06/08 08:55:12;;;;;;;15.98;6.72;;;;;;;19.72;64.81;101776.72;5002316;28;20065;-70
2023/06/08 08:58:00;;;;;;;13.45;6.25;;;;;;;19.75;64.55;101773.69;5018538;28;20054;-70
2023/06/08 09:00:27;;;;;;;10.82;6.07;;;;;;;19.79;64.62;101779.47;5014701;28;20061;-70
2023/06/08 09:02:54;;;;;;;15.35;6.82;;;;;;;19.83;65.33;101770.09;5012420;28;20040;-70
2023/06/08 09:05:21;;;;;;;10.30;6.38;;;;;;;19.94;65.28;101782.94;5020213;28;20057;-70
2023/06/08 09:07:47;;;;;;;11.07;6.32;;;;;;;20.01;63.93;101772.38;5005854;28;20653;-70
2023/06/08 09:10:25;;;;;;;14.18;6.43;;;;;;;20.06;61.85;101766.50;5005040;28;20078;-70
2023/06/08 09:12:56;;;;;;;9.98;5.15;;;;;;;20.21;61.07;101769.97;5009625;28;20050;-70
2023/06/08 09:15:26;;;;;;;10.65;6.07;;;;;;;20.35;60.59;101765.63;5009625;28;20057;-70
2023/06/08 09:17:54;;;;;;;13.15;6.18;;;;;;;20.53;60.10;101760.66;5011551;28;20061;-70
2023/06/08 09:20:31;;;;;;;9.77;5.68;;;;;;;21.07;59.77;101755.84;5021999;28;20582;-70
2023/06/08 09:22:58;;;;;;;11.73;5.85;;;;;;;21.65;58.80;101753.81;5020931;28;20058;-71
2023/06/08 09:25:36;;;;;;;12.07;6.73;;;;;;;22.28;57.45;101763.53;5023547;28;20068;-71
2023/06/08 09:28:25;;;;;;;13.63;7.43;;;;;;;22.65;56.49;101764.84;5017705;28;20082;-71
2023/06/08 09:30:55;;;;;;;11.55;6.55;;;;;;;23.09;54.94;101757.28;5022166;28;20115;-71
2023/06/08 09:33:24;;;;;;;11.32;6.65;;;;;;;23.15;54.09;101755.63;5016593;28;20030;-70
2023/06/08 09:35:57;;;;;;;12.93;6.93;;;;;;;23.23;54.07;101750.91;5014891;28;20081;-70
2023/06/08 09:38:28;;;;;;;11.82;6.45;;;;;;;23.10;54.17;101750.91;5015063;28;20046;-71
2023/06/08 09:41:15;;;;;;;11.38;7.13;;;;;;;22.96;53.62;101750.06;5020630;28;20062;-70
2023/06/08 09:43:45;;;;;;;;;;;;;;;23.17;53.19;101745.53;5019475;28;20080;-70
2023/06/08 09:46:15;;;;;;;13.77;6.30;;;;;;;23.19;53.55;101744.31;5020492;28;19921;-70
2023/06/08 09:48:56;;;;;;;13.02;6.65;;;;;;;23.45;53.58;101735.41;5017422;28;20046;-70
2023/06/08 09:51:23;;;;;;;15.93;7.72;;;;;;;23.73;52.71;101736.16;5022028;28;20100;-70
2023/06/08 09:53:58;;;;;;;14.82;6.70;;;;;;;24.00;53.33;101735.03;5024342;28;20763;-70
2023/06/08 09:56:27;;;;;;;15.00;6.50;;;;;;;24.24;52.78;101732.63;5015467;28;20049;-71
2023/06/08 09:58:58;;;;;;;11.02;6.22;;;;;;;24.52;51.91;101732.28;5024611;28;20056;-70
2023/06/08 10:01:35;;;;;;;13.20;6.57;;;;;;;24.63;51.30;101726.19;5009653;28;20059;-70
2023/06/08 10:04:28;;;;;;;14.13;7.63;;;;;;;24.89;51.21;101726.22;5014966;28;20077;-70
2023/06/08 10:07:02;;;;;;;8.23;5.25;;;;;;;25.28;51.52;101721.53;5007582;28;20041;-70
2023/06/08 10:09:32;;;;;;;12.90;7.07;;;;;;;25.36;49.98;101715.88;5020953;28;20124;-70
2023/06/08 10:12:00;;;;;;;12.48;6.25;;;;;;;25.61;49.98;101723.84;5016078;28;20069;-70
2023/06/08 10:14:26;;;;;;;12.45;6.75;;;;;;;25.75;49.58;101722.63;5026434;28;20050;-70
2023/06/08 10:16:55;;;;;;;13.05;6.65;;;;;;;25.92;49.45;101716.69;5021565;28;20068;-70
2023/06/08 10:19:22;;;;;;;10.95;6.50;;;;;;;26.14;49.83;101719.69;5020211;28;20054;-70
2023/06/08 10:21:52;;;;;;;10.95;5.65;;;;;;;26.26;49.34;101725.91;5027304;28;20073;-70
2023/06/08 10:24:20;;;;;;;9.32;5.32;;;;;;;26.50;48.91;101718.72;5017392;28;20049;-70
2023/06/08 10:26:50;;;;;;;12.73;6.40;;;;;;;26.54;46.92;101717.22;5023360;28;20585;-70
2023/06/08 10:29:25;;;;;;;10.25;6.25;;;;;;;26.38;48.83;101716.03;5014523;28;20033;-70
2023/06/08 10:31:52;;;;;;;11.93;6.85;;;;;;;26.57;48.41;101716.75;5020902;28;20194;-70
2023/06/08 10:34:19;;;;;;;10.60;6.28;;;;;;;26.76;48.27;101703.25;5018024;28;20045;-70
2023/06/08 10:36:46;;;;;;;11.75;6.32;;;;;;;26.99;48.13;101705.94;5020163;28;20046;-70
2023/06/08 10:39:14;;;;;;;11.75;6.50;;;;;;;27.16;47.80;101699.81;5012124;28;20050;-70
2023/06/08 10:41:59;;;;;;;17.80;6.55;;;;;;;27.27;46.80;101695.50;5007132;28;20250;-69
2023/06/08 10:44:35;;;;;;;13.45;5.85;;;;;;;27.60;47.49;101701.03;5024884;28;20125;-70
2023/06/08 10:47:08;;;;;;;13.35;6.60;;;;;;;27.69;46.35;101692.56;5009469;28;20109;-69
2023/06/08 10:49:37;;;;;;;10.95;5.43;;;;;;;27.84;46.91;101689.38;5028377;28;20046;-70
2023/06/08 10:52:09;;;;;;;12.18;5.85;;;;;;;28.07;46.75;101683.88;5025818;28;20120;-70
2023/06/08 10:54:56;;;;;;;17.27;5.60;;;;;;;28.27;46.09;101674.50;5023988;28;20038;-70
2023/06/08 10:57:53;;;;;;;13.98;5.72;;;;;;;28.31;44.81;101679.16;5026415;28;20122;-70
2023/06/08 11:00:26;;;;;;;9.40;4.95;;;;;;;28.42;45.18;101680.13;5022957;28;20109;-70
2023/06/08 11:02:57;;;;;;;8.30;5.38;;;;;;;28.46;45.04;101672.38;5025741;28;20101;-70
2023/06/08 11:05:24;;;;;;;9.48;4.47;;;;;;;28.61;45.15;101658.34;5017259;28;20038;-69
2023/06/08 11:07:53;;;;;;;14.98;5.43;;;;;;;28.72;45.18;101657.44;5027317;28;20314;-68
2023/06/08 11:10:20;;;;;;;10.95;5.20;;;;;;;28.88;45.05;101661.16;5010736;28;20062;-70
2023/06/08 11:12:47;;;;;;;8.82;5.15;;;;;;;29.03;44.36;101657.84;5020773;28;20291;-69
2023/06/08 11:15:14;;;;;;;7.63;4.78;;;;;;;29.15;43.90;101658.59;5021362;28;20073;-69
2023/06/08 11:17:53;;;;;;;10.32;5.20;;;;;;;29.35;43.70;101656.13;5024572;28;20263;-69
2023/06/08 11:20:29;;;;;;;10.07;4.47;;;;;;;29.42;44.41;101650.50;5030596;28;20125;-69
2023/06/08 11:22:56;;;;;;;11.00;5.50;;;;;;;29.28;43.58;101649.28;5023297;28;20038;-69
2023/06/08 11:25:24;;;;;;;11.73;5.32;;;;;;;29.29;43.95;101640.91;5022317;28;20037;-70
2023/06/08 11:27:55;;;;;;;11.05;5.63;;;;;;;29.26;43.14;101640.59;5016413;28;20045;-70
2023/06/08 11:30:25;;;;;;;10.82;5.30;;;;;;;29.33;42.88;101633.94;5030045;28;20073;-70